Time;durP1;ratioP1;P1;durP2;ratioP2;P2;SDS_P1;SDS_P2;PMS_P1;PMS_P2;Temp;Humidity;BMP_temperature;BMP_pressure;BME280_temperature;BME280_humidity;BME280_pressure;Samples;Min_cycle;Max_cycle;Signal;HPM_P1;HPM_P2
2022/07/06 00:02:08;;;;;;;;;;;27.10;90.60;;;;;;5050562;28;19954;-58
2022/07/06 00:04:36;;;;;;;;;;;27.10;90.60;;;;;;5049474;28;20427;-57
2022/07/06 00:07:03;;;;;;;;;;;27.10;90.60;;;;;;5061483;28;20296;-57
2022/07/06 00:09:30;;;;;;;;;;;27.10;90.60;;;;;;5052208;28;19925;-56
2022/07/06 00:11:57;;;;;;;;;;;27.10;90.60;;;;;;5052102;28;20187;-58
2022/07/06 00:14:24;;;;;;;;;;;27.10;90.60;;;;;;5051600;28;19924;-55
2022/07/06 00:16:51;;;;;;;;;;;27.10;90.60;;;;;;5053878;28;19924;-57
2022/07/06 00:19:19;;;;;;;;;;;27.10;90.60;;;;;;5049754;28;19927;-54
2022/07/06 00:21:46;;;;;;;;;;;27.10;90.60;;;;;;5054001;28;19927;-57
2022/07/06 00:24:13;;;;;;;;;;;27.00;90.60;;;;;;5049358;28;19928;-54
2022/07/06 00:26:40;;;;;;;;;;;27.00;90.60;;;;;;5050665;28;19924;-57
2022/07/06 00:29:07;;;;;;;;;;;27.00;90.60;;;;;;5064302;28;20410;-52
2022/07/06 00:31:35;;;;;;;;;;;27.00;90.60;;;;;;5072152;28;20039;-52
2022/07/06 00:34:02;;;;;;;;;;;27.10;90.60;;;;;;5049394;28;20258;-57
2022/07/06 00:36:29;;;;;;;;;;;27.00;90.60;;;;;;5055341;28;19924;-55
2022/07/06 00:38:56;;;;;;;;;;;27.00;90.60;;;;;;5047385;28;19932;-55
2022/07/06 00:41:24;;;;;;;;;;;27.00;90.60;;;;;;5054680;28;19920;-54
2022/07/06 00:43:51;;;;;;;;;;;27.00;90.60;;;;;;5063665;28;19924;-59
2022/07/06 00:46:26;;;;;;;;;;;27.00;90.60;;;;;;5051705;28;19921;-56
2022/07/06 00:48:53;;;;;;;;;;;27.00;90.60;;;;;;5047852;28;20299;-55
2022/07/06 00:51:24;;;;;;;;;;;27.00;90.60;;;;;;5059600;28;19931;-56
2022/07/06 00:53:51;;;;;;;;;;;27.00;90.60;;;;;;5054430;28;19924;-51
2022/07/06 00:56:18;;;;;;;;;;;27.00;90.60;;;;;;5050465;28;19955;-56
2022/07/06 00:58:46;;;;;;;;;;;27.00;90.60;;;;;;5049042;28;19924;-54
2022/07/06 01:01:13;;;;;;;;;;;27.00;90.60;;;;;;5058169;28;20295;-51
2022/07/06 01:03:41;;;;;;;;;;;27.00;90.60;;;;;;5048795;28;19920;-54
2022/07/06 01:06:08;;;;;;;;;;;27.00;90.60;;;;;;5057500;28;20565;-56
2022/07/06 01:08:36;;;;;;;;;;;27.00;90.60;;;;;;5062855;28;20338;-55
2022/07/06 01:11:03;;;;;;;;;;;26.90;90.60;;;;;;5049736;28;19932;-57
2022/07/06 01:13:30;;;;;;;;;;;26.90;90.60;;;;;;5048504;28;19924;-56
2022/07/06 01:15:58;;;;;;;;;;;26.90;90.60;;;;;;5061354;28;19931;-56
2022/07/06 01:18:26;;;;;;;;;;;26.90;90.60;;;;;;5067355;28;19932;-58
2022/07/06 01:21:07;;;;;;;;;;;26.90;90.60;;;;;;5054987;28;19932;-55
2022/07/06 01:23:38;;;;;;;;;;;26.90;90.60;;;;;;5063323;28;19921;-56
2022/07/06 01:26:05;;;;;;;;;;;26.90;90.60;;;;;;5049352;28;20404;-54
2022/07/06 01:28:32;;;;;;;;;;;26.90;90.60;;;;;;5048875;28;19944;-56
2022/07/06 01:30:59;;;;;;;;;;;26.90;90.60;;;;;;5054499;28;19925;-56
2022/07/06 01:33:27;;;;;;;;;;;26.90;90.60;;;;;;5048053;28;19925;-56
2022/07/06 01:35:54;;;;;;;;;;;26.90;90.60;;;;;;5049476;28;19925;-55
2022/07/06 01:38:22;;;;;;;;;;;26.90;90.60;;;;;;5060992;28;19931;-56
2022/07/06 01:40:50;;;;;;;;;;;26.90;90.60;;;;;;5049712;28;19921;-50
2022/07/06 01:43:17;;;;;;;;;;;26.90;90.70;;;;;;5049812;28;19928;-54
2022/07/06 01:45:44;;;;;;;;;;;26.90;90.70;;;;;;5069971;28;19925;-55
2022/07/06 01:48:13;;;;;;;;;;;26.90;90.70;;;;;;5063723;28;19943;-57
2022/07/06 01:50:40;;;;;;;;;;;26.90;90.70;;;;;;5048618;28;20384;-56
2022/07/06 01:53:07;;;;;;;;;;;26.90;90.70;;;;;;5051489;28;19925;-55
2022/07/06 01:55:34;;;;;;;;;;;26.90;90.70;;;;;;5051509;28;19928;-55
2022/07/06 01:58:02;;;;;;;;;;;26.90;90.70;;;;;;5046827;28;20392;-57
2022/07/06 02:00:29;;;;;;;;;;;26.90;90.70;;;;;;5061166;28;19931;-54
2022/07/06 02:02:57;;;;;;;;;;;26.90;90.70;;;;;;5047966;28;19928;-57
2022/07/06 02:05:25;;;;;;;;;;;26.80;90.70;;;;;;5050318;28;19928;-58
2022/07/06 02:07:52;;;;;;;;;;;26.80;90.70;;;;;;5057823;28;19924;-57
2022/07/06 02:10:19;;;;;;;;;;;26.80;90.70;;;;;;5063215;28;20307;-58
2022/07/06 02:12:46;;;;;;;;;;;26.80;90.70;;;;;;5065562;28;19928;-55
2022/07/06 02:15:14;;;;;;;;;;;26.80;90.70;;;;;;5054913;28;19920;-57
2022/07/06 02:17:41;;;;;;;;;;;26.80;90.70;;;;;;5050266;28;19931;-51
2022/07/06 02:20:08;;;;;;;;;;;26.80;90.70;;;;;;5046188;28;20329;-52
2022/07/06 02:22:36;;;;;;;;;;;26.80;90.70;;;;;;5048087;28;19924;-55
2022/07/06 02:25:03;;;;;;;;;;;26.80;90.70;;;;;;5058243;28;19925;-52
2022/07/06 02:27:31;;;;;;;;;;;26.80;90.70;;;;;;5056524;28;19927;-56
2022/07/06 02:30:01;;;;;;;;;;;26.80;90.70;;;;;;5047144;28;19928;-55
2022/07/06 02:32:30;;;;;;;;;;;26.80;90.70;;;;;;5057249;28;19921;-52
2022/07/06 02:34:58;;;;;;;;;;;26.80;90.70;;;;;;5046779;28;20407;-55
2022/07/06 02:37:26;;;;;;;;;;;26.80;90.70;;;;;;5048208;28;20412;-53
2022/07/06 02:39:53;;;;;;;;;;;26.80;90.70;;;;;;5046811;28;19924;-55
2022/07/06 02:42:21;;;;;;;;;;;26.80;90.70;;;;;;5074165;28;19925;-54
2022/07/06 02:44:48;;;;;;;;;;;26.70;90.70;;;;;;5048073;28;19931;-55
2022/07/06 02:47:15;;;;;;;;;;;26.70;90.70;;;;;;5047007;28;19925;-59
2022/07/06 02:49:42;;;;;;;;;;;26.70;90.70;;;;;;5067177;28;19939;-57
2022/07/06 02:52:09;;;;;;;;;;;26.70;90.70;;;;;;5050806;28;19925;-57
2022/07/06 02:54:36;;;;;;;;;;;26.70;90.70;;;;;;5064821;28;19931;-59
2022/07/06 02:57:04;;;;;;;;;;;26.70;90.70;;;;;;5068155;28;19932;-57
2022/07/06 02:59:31;;;;;;;;;;;26.70;90.70;;;;;;5057165;28;19921;-54
2022/07/06 03:01:58;;;;;;;;;;;26.70;90.80;;;;;;5051884;28;19932;-52
2022/07/06 03:04:25;;;;;;;;;;;26.70;90.70;;;;;;5051673;28;19925;-54
2022/07/06 03:06:52;;;;;;;;;;;26.70;90.80;;;;;;5051817;28;19936;-54
2022/07/06 03:09:20;;;;;;;;;;;26.70;90.70;;;;;;5077945;28;19935;-53
2022/07/06 03:11:47;;;;;;;;;;;26.70;90.80;;;;;;5060165;28;19924;-56
2022/07/06 03:14:15;;;;;;;;;;;26.70;90.80;;;;;;5065418;28;19924;-54
2022/07/06 03:16:46;;;;;;;;;;;26.70;90.70;;;;;;5056866;28;19920;-56
2022/07/06 03:19:18;;;;;;;;;;;26.70;90.80;;;;;;5049477;28;19935;-56
2022/07/06 03:21:46;;;;;;;;;;;26.60;90.70;;;;;;5050906;28;19921;-56
2022/07/06 03:24:13;;;;;;;;;;;26.70;90.80;;;;;;5065661;28;19921;-56
2022/07/06 03:26:40;;;;;;;;;;;26.70;90.80;;;;;;5055402;28;20427;-54
2022/07/06 03:29:07;;;;;;;;;;;26.60;90.70;;;;;;5049877;28;19921;-55
2022/07/06 03:31:35;;;;;;;;;;;26.60;90.70;;;;;;5049893;28;19920;-55
2022/07/06 03:34:02;;;;;;;;;;;26.60;90.70;;;;;;5049238;28;20411;-55
2022/07/06 03:36:30;;;;;;;;;;;26.60;90.80;;;;;;5052469;28;19948;-57
2022/07/06 03:39:05;;;;;;;;;;;26.60;90.80;;;;;;5050436;28;20392;-57
2022/07/06 03:41:34;;;;;;;;;;;26.60;90.80;;;;;;5055014;28;20323;-58
2022/07/06 03:44:02;;;;;;;;;;;26.60;90.80;;;;;;5051737;28;19924;-55
2022/07/06 03:46:30;;;;;;;;;;;26.60;90.80;;;;;;5078037;28;19924;-54
2022/07/06 03:48:58;;;;;;;;;;;26.60;90.80;;;;;;5053693;28;19928;-55
2022/07/06 03:51:25;;;;;;;;;;;26.60;90.80;;;;;;5072912;28;19927;-56
2022/07/06 03:53:53;;;;;;;;;;;26.60;90.80;;;;;;5053304;28;20296;-57
2022/07/06 03:56:29;;;;;;;;;;;26.60;90.80;;;;;;5058860;28;19929;-51
2022/07/06 03:59:08;;;;;;;;;;;26.60;90.80;;;;;;5049430;28;20581;-55
2022/07/06 04:01:37;;;;;;;;;;;26.60;90.80;;;;;;5054434;28;20293;-58
2022/07/06 04:04:04;;;;;;;;;;;26.60;90.80;;;;;;5048598;28;19920;-57
2022/07/06 04:06:37;;;;;;;;;;;26.50;90.80;;;;;;5061997;28;20284;-55
2022/07/06 04:09:04;;;;;;;;;;;26.50;90.80;;;;;;5054289;28;20927;-55
2022/07/06 04:11:32;;;;;;;;;;;26.50;90.80;;;;;;5050083;28;19924;-59
2022/07/06 04:13:59;;;;;;;;;;;26.50;90.80;;;;;;5049396;28;19924;-59
2022/07/06 04:16:26;;;;;;;;;;;26.50;90.80;;;;;;5063980;28;19924;-53
2022/07/06 04:18:54;;;;;;;;;;;26.50;90.80;;;;;;5065905;28;20395;-54
2022/07/06 04:21:21;;;;;;;;;;;26.50;90.80;;;;;;5051056;28;19947;-56
2022/07/06 04:23:48;;;;;;;;;;;26.50;90.80;;;;;;5049817;28;20360;-57
2022/07/06 04:26:16;;;;;;;;;;;26.50;91.10;;;;;;5065131;28;19920;-54
2022/07/06 04:28:43;;;;;;;;;;;26.50;90.80;;;;;;5050514;28;19928;-55
2022/07/06 04:31:10;;;;;;;;;;;26.50;90.80;;;;;;5050791;28;20343;-54
2022/07/06 04:33:38;;;;;;;;;;;26.50;90.80;;;;;;5060459;28;19928;-52
2022/07/06 04:36:05;;;;;;;;;;;26.50;90.80;;;;;;5055055;28;19924;-51
2022/07/06 04:38:39;;;;;;;;;;;26.50;90.80;;;;;;5074108;28;19929;-53
2022/07/06 04:41:07;;;;;;;;;;;26.50;90.80;;;;;;5066508;28;19935;-52
2022/07/06 04:43:35;;;;;;;;;;;26.50;90.80;;;;;;5048112;28;20387;-57
2022/07/06 04:46:03;;;;;;;;;;;26.50;90.80;;;;;;5052022;28;19924;-57
2022/07/06 04:48:36;;;;;;;;;;;26.50;90.80;;;;;;5064815;28;20024;-54
2022/07/06 04:51:04;;;;;;;;;;;26.50;90.80;;;;;;5067936;28;19928;-54
2022/07/06 04:53:32;;;;;;;;;;;26.50;90.80;;;;;;5051703;28;19924;-54
2022/07/06 04:55:59;;;;;;;;;;;26.50;90.90;;;;;;5061816;28;20390;-54
2022/07/06 04:58:27;;;;;;;;;;;26.50;90.90;;;;;;5047888;28;19924;-53
2022/07/06 05:00:54;;;;;;;;;;;26.50;90.90;;;;;;5060399;28;19924;-53
2022/07/06 05:03:23;;;;;;;;;;;26.50;90.80;;;;;;5064548;28;19924;-51
2022/07/06 05:05:51;;;;;;;;;;;26.50;90.80;;;;;;5070911;28;20387;-52
2022/07/06 05:08:22;;;;;;;;;;;26.60;90.80;;;;;;5057029;28;20308;-55
2022/07/06 05:10:51;;;;;;;;;;;26.60;90.80;;;;;;5061137;28;19996;-55
2022/07/06 05:13:19;;;;;;;;;;;26.50;90.80;;;;;;5053864;28;19921;-53
2022/07/06 05:15:47;;;;;;;;;;;26.50;90.80;;;;;;5055251;28;20387;-52
2022/07/06 05:18:14;;;;;;;;;;;26.50;90.90;;;;;;5049709;28;20376;-53
2022/07/06 05:20:42;;;;;;;;;;;26.50;90.90;;;;;;5055291;28;19921;-58
2022/07/06 05:23:10;;;;;;;;;;;26.50;90.90;;;;;;5046534;28;20056;-55
2022/07/06 05:25:37;;;;;;;;;;;26.50;90.90;;;;;;5051301;28;19927;-54
2022/07/06 05:28:05;;;;;;;;;;;26.50;90.90;;;;;;5069173;28;19920;-54
2022/07/06 05:30:32;;;;;;;;;;;26.50;90.90;;;;;;5063403;28;19925;-57
2022/07/06 05:32:59;;;;;;;;;;;26.50;90.90;;;;;;5049252;28;20175;-52
2022/07/06 05:35:27;;;;;;;;;;;26.50;90.90;;;;;;5064321;28;19925;-54
2022/07/06 05:38:15;;;;;;;;;;;26.50;90.90;;;;;;5052037;28;19931;-55
2022/07/06 05:40:42;;;;;;;;;;;26.50;90.90;;;;;;5047678;28;19925;-53
2022/07/06 05:43:09;;;;;;;;;;;26.40;90.90;;;;;;5048788;28;20407;-58
2022/07/06 05:45:37;;;;;;;;;;;26.50;90.90;;;;;;5072810;28;19951;-56
2022/07/06 05:50:52;;;;;;;;;;;26.50;90.90;;;;;;5066514;28;19958;-54
2022/07/06 05:53:20;;;;;;;;;;;26.50;90.90;;;;;;5052466;28;20299;-54
2022/07/06 05:55:51;;;;;;;;;;;26.50;90.90;;;;;;5053474;28;19928;-55
2022/07/06 05:58:20;;;;;;;;;;;26.50;90.90;;;;;;5053447;28;19925;-55
2022/07/06 06:00:48;;;;;;;;;;;26.40;90.90;;;;;;5060616;28;19925;-53
2022/07/06 06:03:18;;;;;;;;;;;26.40;90.90;;;;;;5046200;28;19932;-57
2022/07/06 06:05:48;;;;;;;;;;;26.40;90.90;;;;;;5046861;28;19931;-54
2022/07/06 06:08:17;;;;;;;;;;;26.50;91.00;;;;;;5046448;28;20288;-52
2022/07/06 06:10:45;;;;;;;;;;;26.50;91.00;;;;;;5061971;28;20411;-53
2022/07/06 06:13:16;;;;;;;;;;;26.50;90.90;;;;;;5053861;28;19927;-51
2022/07/06 06:15:43;;;;;;;;;;;26.50;90.90;;;;;;5067651;28;19921;-54
2022/07/06 06:18:11;;;;;;;;;;;26.50;90.90;;;;;;5048842;28;19928;-54
2022/07/06 06:20:39;;;;;;;;;;;26.50;90.90;;;;;;5053356;28;19924;-51
2022/07/06 06:23:06;;;;;;;;;;;26.50;90.90;;;;;;5048412;28;19924;-55
2022/07/06 06:25:34;;;;;;;;;;;26.50;90.90;;;;;;5053337;28;19925;-51
2022/07/06 06:28:03;;;;;;;;;;;26.50;91.00;;;;;;5052276;28;20482;-53
2022/07/06 06:30:30;;;;;;;;;;;26.40;90.90;;;;;;5052513;28;19924;-51
2022/07/06 06:33:07;;;;;;;;;;;26.50;91.00;;;;;;5051675;28;19924;-56
2022/07/06 06:35:35;;;;;;;;;;;26.40;91.00;;;;;;5055369;28;20268;-53
2022/07/06 06:38:02;;;;;;;;;;;26.40;91.00;;;;;;5052183;28;20447;-51
2022/07/06 06:40:29;;;;;;;;;;;26.50;91.00;;;;;;5052894;28;19932;-55
2022/07/06 06:42:56;;;;;;;;;;;26.40;91.00;;;;;;5063483;28;19925;-53
2022/07/06 06:45:24;;;;;;;;;;;26.50;91.00;;;;;;5075281;28;19924;-53
2022/07/06 06:47:51;;;;;;;;;;;26.40;91.00;;;;;;5057471;28;19943;-50
2022/07/06 06:50:18;;;;;;;;;;;26.40;91.00;;;;;;5051231;28;20402;-53
2022/07/06 06:52:45;;;;;;;;;;;26.50;91.00;;;;;;5050858;28;19924;-50
2022/07/06 06:55:13;;;;;;;;;;;26.50;91.00;;;;;;5062601;28;19920;-52
2022/07/06 06:57:40;;;;;;;;;;;26.50;91.00;;;;;;5053138;28;19921;-53
2022/07/06 07:00:07;;;;;;;;;;;26.50;91.00;;;;;;5073901;28;19932;-53
2022/07/06 07:02:34;;;;;;;;;;;26.50;91.00;;;;;;5051122;28;20023;-55
2022/07/06 07:05:02;;;;;;;;;;;26.50;91.00;;;;;;5051895;28;19936;-57
2022/07/06 07:07:29;;;;;;;;;;;26.50;91.10;;;;;;5052101;28;19924;-52
2022/07/06 07:09:57;;;;;;;;;;;26.50;91.10;;;;;;5062474;28;19955;-50
2022/07/06 07:12:24;;;;;;;;;;;26.50;91.10;;;;;;5054675;28;20312;-54
2022/07/06 07:14:51;;;;;;;;;;;26.50;91.10;;;;;;5052733;28;19924;-51
2022/07/06 07:17:18;;;;;;;;;;;26.50;91.10;;;;;;5053978;28;20027;-52
2022/07/06 07:19:45;;;;;;;;;;;26.50;91.10;;;;;;5050715;28;19940;-58
2022/07/06 07:22:12;;;;;;;;;;;26.50;91.10;;;;;;5051059;28;19940;-54
2022/07/06 07:24:39;;;;;;;;;;;26.50;91.20;;;;;;5050699;28;20299;-52
2022/07/06 07:27:07;;;;;;;;;;;26.50;91.10;;;;;;5050265;28;20321;-54
2022/07/06 07:29:34;;;;;;;;;;;26.50;91.20;;;;;;5051581;28;19921;-53
2022/07/06 07:32:01;;;;;;;;;;;26.50;91.20;;;;;;5052181;28;19927;-53
2022/07/06 07:34:28;;;;;;;;;;;26.50;91.20;;;;;;5050037;28;20027;-54
2022/07/06 07:36:55;;;;;;;;;;;26.50;91.20;;;;;;5050059;28;20300;-53
2022/07/06 07:39:22;;;;;;;;;;;26.50;91.20;;;;;;5050210;28;19936;-53
2022/07/06 07:41:50;;;;;;;;;;;26.50;91.20;;;;;;5053761;28;19921;-55
2022/07/06 07:44:17;;;;;;;;;;;26.50;91.20;;;;;;5050891;28;19929;-58
2022/07/06 07:46:44;;;;;;;;;;;26.50;91.20;;;;;;5052017;28;19944;-55
2022/07/06 07:49:12;;;;;;;;;;;26.50;91.20;;;;;;5050676;28;19935;-54
2022/07/06 07:51:50;;;;;;;;;;;26.50;91.20;;;;;;5050896;28;20007;-54
2022/07/06 07:54:17;;;;;;;;;;;26.50;91.30;;;;;;5052338;28;19979;-53
2022/07/06 07:56:44;;;;;;;;;;;26.50;91.30;;;;;;5050156;28;19924;-53
2022/07/06 07:59:11;;;;;;;;;;;26.50;91.30;;;;;;5051278;28;19928;-56
2022/07/06 08:01:40;;;;;;;;;;;26.50;91.30;;;;;;5064960;28;19924;-55
2022/07/06 08:04:07;;;;;;;;;;;26.50;91.30;;;;;;5052509;28;20430;-53
2022/07/06 08:06:34;;;;;;;;;;;26.50;91.30;;;;;;5067458;28;19921;-52
2022/07/06 08:09:03;;;;;;;;;;;26.50;91.30;;;;;;5054182;28;19924;-57
2022/07/06 08:11:31;;;;;;;;;;;26.50;91.30;;;;;;5053772;28;20406;-54
2022/07/06 08:13:58;;;;;;;;;;;26.50;91.40;;;;;;5063688;28;19940;-54
2022/07/06 08:16:25;;;;;;;;;;;26.50;91.40;;;;;;5053136;28;19924;-50
2022/07/06 08:18:52;;;;;;;;;;;26.50;91.40;;;;;;5050487;28;19935;-56
2022/07/06 08:21:19;;;;;;;;;;;26.50;91.40;;;;;;5050680;28;19920;-54
2022/07/06 08:23:52;;;;;;;;;;;26.50;91.40;;;;;;5059062;28;19932;-52
2022/07/06 08:26:20;;;;;;;;;;;26.50;91.40;;;;;;5049838;28;19924;-53
2022/07/06 08:28:47;;;;;;;;;;;26.50;91.40;;;;;;5049507;28;20391;-55
2022/07/06 08:31:14;;;;;;;;;;;26.50;91.40;;;;;;5057401;28;19950;-54
2022/07/06 08:34:02;;;;;;;;;;;26.50;91.40;;;;;;5049872;28;19921;-54
2022/07/06 08:36:29;;;;;;;;;;;26.50;91.40;;;;;;5060730;28;19924;-54
2022/07/06 08:38:57;;;;;;;;;;;26.50;91.40;;;;;;5054806;28;20417;-51
2022/07/06 08:41:25;;;;;;;;;;;26.50;91.40;;;;;;5050688;28;19924;-52
2022/07/06 08:43:53;;;;;;;;;;;26.50;91.40;;;;;;5048959;28;19925;-55
2022/07/06 08:46:21;;;;;;;;;;;26.50;91.50;;;;;;5061449;28;20380;-53
2022/07/06 08:48:49;;;;;;;;;;;26.50;91.50;;;;;;5051784;28;19920;-54
2022/07/06 08:51:17;;;;;;;;;;;26.50;91.40;;;;;;5063053;28;19938;-57
2022/07/06 08:53:45;;;;;;;;;;;26.50;91.50;;;;;;5047945;28;19940;-55
2022/07/06 08:56:12;;;;;;;;;;;26.50;91.50;;;;;;5050125;28;19932;-55
2022/07/06 08:58:43;;;;;;;;;;;26.50;91.50;;;;;;5048958;28;20281;-52
2022/07/06 09:01:10;;;;;;;;;;;26.50;91.50;;;;;;5052440;28;20364;-52
2022/07/06 09:03:41;;;;;;;;;;;26.50;91.50;;;;;;5048166;28;19924;-52
2022/07/06 09:06:08;;;;;;;;;;;26.50;91.50;;;;;;5050520;28;19928;-52
2022/07/06 09:08:39;;;;;;;;;;;26.50;91.50;;;;;;5048794;28;19925;-54
2022/07/06 09:11:06;;;;;;;;;;;26.50;91.50;;;;;;5054855;28;19924;-55
2022/07/06 09:13:34;;;;;;;;;;;26.50;91.50;;;;;;5059210;28;19928;-56
2022/07/06 09:16:11;;;;;;;;;;;26.50;91.80;;;;;;5053292;28;20280;-54
2022/07/06 09:18:58;;;;;;;;;;;26.50;91.50;;;;;;5054307;28;19920;-55
2022/07/06 09:21:27;;;;;;;;;;;26.50;91.50;;;;;;5049543;28;19928;-54
2022/07/06 09:23:55;;;;;;;;;;;26.50;91.50;;;;;;5047480;28;19924;-56
2022/07/06 09:26:23;;;;;;;;;;;26.50;91.50;;;;;;5048878;28;20139;-54
2022/07/06 09:28:50;;;;;;;;;;;26.50;91.50;;;;;;5048393;28;19939;-50
2022/07/06 09:31:18;;;;;;;;;;;26.50;91.60;;;;;;5054065;28;20597;-50
2022/07/06 09:33:53;;;;;;;;;;;26.50;91.60;;;;;;5048149;28;19940;-53
2022/07/06 09:36:39;;;;;;;;;;;26.50;91.60;;;;;;5047513;28;19931;-51
2022/07/06 09:39:16;;;;;;;;;;;26.50;91.60;;;;;;5062302;28;20007;-56
2022/07/06 09:41:45;;;;;;;;;;;26.50;91.60;;;;;;5047806;28;19925;-53
2022/07/06 09:44:12;;;;;;;;;;;26.50;91.60;;;;;;5049490;28;19931;-54
2022/07/06 09:46:40;;;;;;;;;;;26.50;91.60;;;;;;5048214;28;19925;-53
2022/07/06 09:49:08;;;;;;;;;;;26.50;91.60;;;;;;5048127;28;19924;-55
2022/07/06 09:51:35;;;;;;;;;;;26.50;91.60;;;;;;5061895;28;19925;-55
2022/07/06 09:54:07;;;;;;;;;;;26.50;91.60;;;;;;5047593;28;19935;-54
2022/07/06 09:56:38;;;;;;;;;;;26.50;91.60;;;;;;5049351;28;19921;-55
2022/07/06 09:59:09;;;;;;;;;;;26.50;91.60;;;;;;5049745;28;20501;-57
2022/07/06 10:01:38;;;;;;;;;;;26.50;91.60;;;;;;5055015;28;20398;-51
2022/07/06 10:04:06;;;;;;;;;;;26.50;91.60;;;;;;5058432;28;19932;-56
2022/07/06 10:06:34;;;;;;;;;;;26.50;91.60;;;;;;5058998;28;19928;-56
2022/07/06 10:09:04;;;;;;;;;;;26.50;91.60;;;;;;5046817;28;20381;-57
2022/07/06 10:11:41;;;;;;;;;;;26.50;91.60;;;;;;5070203;28;19931;-54
2022/07/06 10:14:08;;;;;;;;;;;26.50;91.60;;;;;;5054039;28;20312;-54
2022/07/06 10:16:37;;;;;;;;;;;26.50;91.60;;;;;;5048519;28;19925;-56
2022/07/06 10:19:05;;;;;;;;;;;26.50;91.60;;;;;;5047655;28;19939;-54
2022/07/06 10:21:35;;;;;;;;;;;26.50;91.60;;;;;;5047436;28;20366;-57
2022/07/06 10:24:03;;;;;;;;;;;26.50;91.60;;;;;;5061557;28;19932;-53
2022/07/06 10:26:30;;;;;;;;;;;26.50;91.60;;;;;;5053071;28;19924;-52
2022/07/06 10:28:58;;;;;;;;;;;26.50;91.60;;;;;;5046842;28;19925;-53
2022/07/06 10:31:26;;;;;;;;;;;26.50;91.60;;;;;;5048920;28;19931;-54
2022/07/06 10:33:54;;;;;;;;;;;26.50;91.60;;;;;;5046495;28;19936;-52
2022/07/06 10:36:21;;;;;;;;;;;26.50;91.70;;;;;;5056073;28;19928;-54
2022/07/06 10:38:49;;;;;;;;;;;26.50;91.60;;;;;;5052594;28;19931;-52
2022/07/06 10:41:17;;;;;;;;;;;26.50;91.60;;;;;;5053322;28;19936;-56
2022/07/06 10:43:45;;;;;;;;;;;26.50;91.70;;;;;;5058411;28;20034;-52
2022/07/06 10:46:16;;;;;;;;;;;26.50;91.60;;;;;;5044380;28;20236;-56
2022/07/06 10:48:44;;;;;;;;;;;26.50;91.60;;;;;;5048394;28;20387;-49
2022/07/06 10:51:12;;;;;;;;;;;26.50;91.60;;;;;;5047458;28;20282;-53
2022/07/06 10:53:40;;;;;;;;;;;26.50;91.60;;;;;;5047815;28;19924;-51
2022/07/06 10:56:08;;;;;;;;;;;26.50;91.60;;;;;;5047868;28;20363;-54
2022/07/06 10:58:51;;;;;;;;;;;26.50;91.60;;;;;;5046891;28;19935;-52
2022/07/06 11:01:21;;;;;;;;;;;26.50;91.60;;;;;;5061446;28;19935;-52
2022/07/06 11:03:57;;;;;;;;;;;26.50;91.60;;;;;;5048190;28;19924;-55
2022/07/06 11:06:25;;;;;;;;;;;26.50;91.60;;;;;;5047945;28;20370;-55
2022/07/06 11:08:57;;;;;;;;;;;26.50;91.60;;;;;;5048941;28;19932;-57
2022/07/06 11:11:25;;;;;;;;;;;26.50;91.60;;;;;;5054823;28;19928;-52
2022/07/06 11:13:58;;;;;;;;;;;26.50;91.60;;;;;;5050727;28;19920;-55
2022/07/06 11:16:26;;;;;;;;;;;26.40;91.50;;;;;;5061591;28;19929;-57
2022/07/06 11:19:02;;;;;;;;;;;26.50;91.60;;;;;;5053786;28;19928;-52
2022/07/06 11:21:34;;;;;;;;;;;26.50;91.60;;;;;;5050920;28;20649;-51
2022/07/06 11:24:03;;;;;;;;;;;26.40;91.60;;;;;;5060888;28;19924;-56
2022/07/06 11:26:30;;;;;;;;;;;26.50;91.60;;;;;;5056872;28;19931;-54
2022/07/06 11:29:06;;;;;;;;;;;26.50;91.60;;;;;;5050716;28;20388;-53
2022/07/06 11:31:35;;;;;;;;;;;26.50;91.60;;;;;;5055395;28;19931;-56
2022/07/06 11:34:06;;;;;;;;;;;26.50;91.60;;;;;;5061880;28;19925;-54
2022/07/06 11:36:34;;;;;;;;;;;26.40;91.50;;;;;;5051298;28;19936;-54
2022/07/06 11:39:07;;;;;;;;;;;26.40;91.60;;;;;;5051001;28;19936;-56
2022/07/06 11:41:35;;;;;;;;;;;26.40;91.50;;;;;;5057694;28;19920;-54
2022/07/06 11:44:02;;;;;;;;;;;26.50;91.60;;;;;;5052589;28;19932;-55
2022/07/06 11:46:30;;;;;;;;;;;26.40;91.50;;;;;;5052969;28;20443;-55
2022/07/06 11:48:59;;;;;;;;;;;26.50;91.50;;;;;;5050940;28;20387;-55
2022/07/06 11:51:30;;;;;;;;;;;26.40;91.50;;;;;;5057654;28;19925;-53
2022/07/06 11:53:59;;;;;;;;;;;26.40;91.50;;;;;;5066290;28;20413;-53
2022/07/06 11:56:27;;;;;;;;;;;26.40;91.50;;;;;;5051743;28;19924;-50
2022/07/06 11:58:55;;;;;;;;;;;26.40;91.50;;;;;;5058821;28;19936;-53
2022/07/06 12:01:24;;;;;;;;;;;26.40;91.50;;;;;;5056110;28;19924;-53
2022/07/06 12:03:51;;;;;;;;;;;26.40;91.50;;;;;;5049449;28;20038;-56
2022/07/06 12:06:20;;;;;;;;;;;26.40;91.50;;;;;;5057250;28;19920;-52
2022/07/06 12:08:48;;;;;;;;;;;26.40;91.50;;;;;;5048776;28;20195;-55
2022/07/06 12:11:20;;;;;;;;;;;26.40;91.50;;;;;;5055137;28;19986;-57
2022/07/06 12:13:48;;;;;;;;;;;26.40;91.50;;;;;;5061723;28;19931;-52
2022/07/06 12:16:16;;;;;;;;;;;26.40;91.50;;;;;;5052916;28;19928;-54
2022/07/06 12:18:44;;;;;;;;;;;26.50;91.50;;;;;;5049592;28;19921;-56
2022/07/06 12:21:13;;;;;;;;;;;26.40;91.50;;;;;;5049124;28;19924;-52
2022/07/06 12:23:41;;;;;;;;;;;26.40;91.50;;;;;;5050403;28;19925;-55
2022/07/06 12:26:08;;;;;;;;;;;26.50;91.50;;;;;;5054113;28;20225;-49
2022/07/06 12:28:36;;;;;;;;;;;26.50;91.50;;;;;;5050193;28;19996;-53
2022/07/06 12:31:03;;;;;;;;;;;26.50;91.50;;;;;;5062356;28;19954;-56
2022/07/06 12:33:30;;;;;;;;;;;26.50;91.50;;;;;;5048516;28;19932;-53
2022/07/06 12:36:08;;;;;;;;;;;26.50;91.50;;;;;;5050459;28;19948;-54
2022/07/06 12:38:35;;;;;;;;;;;26.50;91.50;;;;;;5049016;28;19931;-54
2022/07/06 12:41:03;;;;;;;;;;;26.50;91.50;;;;;;5051921;28;19925;-54
2022/07/06 12:43:37;;;;;;;;;;;26.50;91.50;;;;;;5052243;28;19925;-53
2022/07/06 12:46:25;;;;;;;;;;;26.50;91.60;;;;;;5049054;28;20148;-52
2022/07/06 12:48:53;;;;;;;;;;;26.50;91.60;;;;;;5048499;28;19924;-52
2022/07/06 12:51:20;;;;;;;;;;;26.50;91.60;;;;;;5048943;28;19947;-51
2022/07/06 12:53:48;;;;;;;;;;;26.50;91.60;;;;;;5048714;28;19931;-50
2022/07/06 12:56:16;;;;;;;;;;;26.50;91.60;;;;;;5060306;28;20288;-52
2022/07/06 12:58:59;;;;;;;;;;;26.60;91.60;;;;;;5055963;28;19925;-54
2022/07/06 13:01:26;;;;;;;;;;;26.60;91.60;;;;;;5054325;28;19921;-55
2022/07/06 13:03:55;;;;;;;;;;;26.60;91.60;;;;;;5048274;28;19925;-55
2022/07/06 13:06:36;;;;;;;;;;;26.60;91.60;;;;;;5049154;28;19925;-53
2022/07/06 13:09:04;;;;;;;;;;;26.60;91.60;;;;;;5048513;28;19921;-56
2022/07/06 13:11:33;;;;;;;;;;;26.60;91.60;;;;;;5054024;28;19920;-57
2022/07/06 13:14:00;;;;;;;;;;;26.70;91.60;;;;;;5059485;28;20500;-57
2022/07/06 13:16:34;;;;;;;;;;;26.70;91.60;;;;;;5048994;28;19936;-54
2022/07/06 13:19:01;;;;;;;;;;;26.70;91.60;;;;;;5057768;28;20026;-55
2022/07/06 13:21:29;;;;;;;;;;;26.70;91.60;;;;;;5056244;28;19921;-58
2022/07/06 13:23:56;;;;;;;;;;;26.70;91.60;;;;;;5048797;28;19921;-52
2022/07/06 13:26:23;;;;;;;;;;;26.70;91.60;;;;;;5063217;28;19947;-55
2022/07/06 13:28:50;;;;;;;;;;;26.80;91.70;;;;;;5062624;28;19935;-55
2022/07/06 13:31:17;;;;;;;;;;;26.80;91.70;;;;;;5051948;28;19924;-54
2022/07/06 13:33:44;;;;;;;;;;;26.80;91.70;;;;;;5047282;28;19936;-52
2022/07/06 13:36:12;;;;;;;;;;;26.80;91.70;;;;;;5049730;28;19940;-51
2022/07/06 13:38:39;;;;;;;;;;;26.70;91.70;;;;;;5048835;28;20392;-56
2022/07/06 13:41:06;;;;;;;;;;;26.80;91.80;;;;;;5053399;28;19932;-53
2022/07/06 13:43:36;;;;;;;;;;;26.80;91.70;;;;;;5057296;28;19924;-54
2022/07/06 13:46:03;;;;;;;;;;;26.80;91.80;;;;;;5049963;28;20291;-53
2022/07/06 13:48:32;;;;;;;;;;;26.80;91.80;;;;;;5048521;28;20434;-52
2022/07/06 13:50:59;;;;;;;;;;;26.80;91.70;;;;;;5047936;28;20642;-51
2022/07/06 13:53:27;;;;;;;;;;;26.80;91.60;;;;;;5047583;28;19928;-55
2022/07/06 13:55:55;;;;;;;;;;;26.90;91.60;;;;;;5049339;28;19931;-55
2022/07/06 13:58:22;;;;;;;;;;;26.90;91.50;;;;;;5046390;28;20226;-55
2022/07/06 14:00:49;;;;;;;;;;;27.00;91.50;;;;;;5058550;28;19920;-51
2022/07/06 14:03:16;;;;;;;;;;;27.00;91.40;;;;;;5057450;28;19932;-56
2022/07/06 14:05:44;;;;;;;;;;;27.10;91.30;;;;;;5049356;28;20394;-55
2022/07/06 14:08:12;;;;;;;;;;;27.20;91.30;;;;;;5053411;28;20039;-54
2022/07/06 14:10:39;;;;;;;;;;;27.20;91.30;;;;;;5053451;28;20441;-55
2022/07/06 14:13:06;;;;;;;;;;;27.20;91.20;;;;;;5057804;28;19925;-54
2022/07/06 14:15:34;;;;;;;;;;;27.20;91.10;;;;;;5063446;28;19925;-56
2022/07/06 14:18:01;;;;;;;;;;;27.30;91.10;;;;;;5049880;28;19921;-56
2022/07/06 14:20:28;;;;;;;;;;;27.40;91.10;;;;;;5052029;28;19928;-54
2022/07/06 14:22:55;;;;;;;;;;;27.40;91.00;;;;;;5057802;28;20436;-53
2022/07/06 14:25:22;;;;;;;;;;;27.40;91.00;;;;;;5048110;28;19931;-55
2022/07/06 14:27:50;;;;;;;;;;;27.40;91.00;;;;;;5047084;28;19980;-54